createdAt,value
2019-05-02T00:00:31.193Z,96988.39
2019-05-02T00:02:59.779Z,96989.44
2019-05-02T00:05:32.042Z,96980.74
2019-05-02T00:07:58.538Z,96984.17
2019-05-02T00:10:26.845Z,96983.17
2019-05-02T00:12:55.166Z,96979.12
2019-05-02T00:15:23.279Z,96981.02
2019-05-02T00:17:51.304Z,96975.27
2019-05-02T00:20:21.034Z,96969.88
2019-05-02T00:22:52.196Z,96969.88
2019-05-02T00:25:18.765Z,96964.67
2019-05-02T00:27:46.524Z,96964.67
2019-05-02T00:30:15.033Z,96962.11
2019-05-02T00:32:43.086Z,96964.38
2019-05-02T00:35:14.088Z,96956.51
2019-05-02T00:37:41.990Z,96954.16
2019-05-02T00:40:09.789Z,96955.16
2019-05-02T00:42:37.673Z,96952.31
2019-05-02T00:45:05.548Z,96949.33
2019-05-02T00:47:47.503Z,96945.52
2019-05-02T00:50:12.681Z,96944.52
2019-05-02T00:52:40.514Z,96938.45
2019-05-02T00:55:08.375Z,96941.72
2019-05-02T00:57:36.393Z,96941.51
2019-05-02T01:00:05.071Z,96937.45
2019-05-02T01:02:41.963Z,96939.95
2019-05-02T01:05:11.535Z,96938.71
2019-05-02T01:07:39.480Z,96932.89
2019-05-02T01:10:07.368Z,96938.30
2019-05-02T01:12:35.268Z,96928.84
2019-05-02T01:15:07.856Z,96931.09
2019-05-02T01:17:32.898Z,96937.06
2019-05-02T01:20:00.665Z,96923.66
2019-05-02T01:22:28.599Z,96928.27
2019-05-02T01:24:56.609Z,96920.52
2019-05-02T01:27:43.586Z,96920.87
2019-05-02T01:30:43.878Z,96917.41
2019-05-02T01:33:19.050Z,96913.70
2019-05-02T01:35:52.520Z,96915.40
2019-05-02T01:38:32.008Z,96911.46
2019-05-02T01:40:57.130Z,96920.70
2019-05-02T01:43:25.774Z,96911.46
2019-05-02T01:45:53.730Z,96904.16
2019-05-02T01:48:21.981Z,96904.30
2019-05-02T01:50:49.974Z,96905.75
2019-05-02T01:53:17.954Z,96904.99
2019-05-02T01:55:45.836Z,96897.89
2019-05-02T01:58:14.946Z,96896.45
2019-05-02T02:00:44.837Z,96893.53
2019-05-02T02:03:13.302Z,96890.28
2019-05-02T02:05:41.224Z,96893.89
2019-05-02T02:08:09.202Z,96899.08
2019-05-02T02:10:37.110Z,96894.79
2019-05-02T02:13:05.366Z,96900.33
2019-05-02T02:15:33.163Z,96898.63
2019-05-02T02:18:01.081Z,96899.33
2019-05-02T02:20:31.775Z,96900.13
2019-05-02T02:23:18.737Z,96903.38
2019-05-02T02:25:59.423Z,96896.63
2019-05-02T02:28:31.965Z,96903.17
2019-05-02T02:30:57.937Z,96900.81
2019-05-02T02:33:26.851Z,96904.28
2019-05-02T02:35:54.713Z,96828.80
2019-05-02T02:38:26.716Z,96897.88
2019-05-02T02:40:52.090Z,96893.41
2019-05-02T02:43:33.447Z,96899.58
2019-05-02T02:45:59.957Z,96900.72
2019-05-02T02:48:33.711Z,96900.72
2019-05-02T02:50:57.512Z,96893.52
2019-05-02T02:53:31.337Z,96898.16
2019-05-02T02:56:02.082Z,96889.83
2019-05-02T02:58:29.630Z,96891.17
2019-05-02T03:00:57.509Z,96893.31
2019-05-02T03:03:27.819Z,96891.52
2019-05-02T03:05:58.798Z,96892.88
2019-05-02T03:08:25.047Z,96888.52
2019-05-02T03:10:53.245Z,96885.26
2019-05-02T03:13:53.415Z,96882.56
2019-05-02T03:16:22.149Z,96885.40
2019-05-02T03:18:50.048Z,96880.77
2019-05-02T03:21:20.482Z,96882.46
2019-05-02T03:23:47.821Z,96881.45
2019-05-02T03:26:17.280Z,96877.76
2019-05-02T03:28:45.384Z,96884.74
2019-05-02T03:31:23.929Z,96879.69
2019-05-02T03:33:54.445Z,96890.14
2019-05-02T03:36:25.875Z,96889.34
2019-05-02T03:38:42.331Z,96886.23
2019-05-02T03:41:13.128Z,96885.44
2019-05-02T03:43:39.972Z,96883.30
2019-05-02T03:46:13.446Z,96877.69
2019-05-02T03:48:37.962Z,96880.39
2019-05-02T03:51:19.677Z,96875.13
2019-05-02T03:53:35.353Z,96877.59
2019-05-02T03:56:10.583Z,96873.33
2019-05-02T03:58:33.075Z,96872.77
2019-05-02T04:01:03.601Z,96870.08
2019-05-02T04:03:34.275Z,96872.77
2019-05-02T04:06:00.532Z,96871.19
2019-05-02T04:08:28.324Z,96876.03
2019-05-02T04:11:21.737Z,96868.08
2019-05-02T04:13:50.099Z,96869.18
2019-05-02T04:16:18.170Z,96870.42
2019-05-02T04:18:54.611Z,96869.42
2019-05-02T04:21:24.132Z,96873.47
2019-05-02T04:23:46.505Z,96865.38
2019-05-02T04:26:15.023Z,96868.77
2019-05-02T04:28:45.519Z,96869.42
2019-05-02T04:31:13.044Z,96874.02
2019-05-02T04:33:41.287Z,96871.33
2019-05-02T04:36:15.313Z,96870.53
2019-05-02T04:38:47.107Z,96881.33
2019-05-02T04:41:09.371Z,96869.77
2019-05-02T04:43:43.100Z,96875.37
2019-05-02T04:46:09.372Z,96878.63
2019-05-02T04:48:44.395Z,96868.08
2019-05-02T04:51:13.555Z,96879.17
2019-05-02T04:53:42.232Z,96876.23
2019-05-02T04:56:10.250Z,96877.59
2019-05-02T04:58:39.890Z,96877.03
2019-05-02T05:01:05.125Z,96877.94
2019-05-02T05:03:33.034Z,96875.23
2019-05-02T05:06:07.282Z,96879.52
2019-05-02T05:08:31.848Z,96874.33
2019-05-02T05:11:00.124Z,96879.17
2019-05-02T05:13:29.053Z,96880.94
2019-05-02T05:15:57.411Z,96884.09
2019-05-02T05:18:27.393Z,96881.73
2019-05-02T05:20:55.221Z,96892.05
2019-05-02T05:23:39.899Z,96883.60
2019-05-02T05:26:08.199Z,96891.00
2019-05-02T05:28:40.528Z,96892.00
2019-05-02T05:31:07.691Z,96890.31
2019-05-02T05:33:37.630Z,96895.57
2019-05-02T05:36:05.124Z,96890.17
2019-05-02T05:38:35.690Z,96887.92
2019-05-02T05:41:02.953Z,96889.83
2019-05-02T05:43:32.608Z,96887.92
2019-05-02T05:46:09.063Z,96891.27
2019-05-02T05:48:32.074Z,96891.17
2019-05-02T05:50:59.959Z,96893.52
2019-05-02T05:53:28.206Z,96886.18
2019-05-02T05:55:58.980Z,96891.58
2019-05-02T05:58:28.302Z,96883.34
2019-05-02T06:00:58.262Z,96890.92
2019-05-02T06:03:25.311Z,96896.53
2019-05-02T06:05:53.587Z,96892.44
2019-05-02T06:08:21.558Z,96891.67
2019-05-02T06:10:49.318Z,96893.23
2019-05-02T06:13:17.314Z,96894.28
2019-05-02T06:15:45.999Z,96900.47
2019-05-02T06:18:13.963Z,96898.88
2019-05-02T06:20:41.759Z,96903.69
2019-05-02T06:23:09.630Z,96893.23
2019-05-02T06:25:37.411Z,96896.94
2019-05-02T06:28:06.750Z,96897.12
2019-05-02T06:30:34.952Z,96894.77
2019-05-02T06:33:02.954Z,96893.41
2019-05-02T06:35:31.232Z,96891.23
2019-05-02T06:37:59.114Z,96893.09
2019-05-02T06:40:27.087Z,96898.66
2019-05-02T06:42:54.925Z,96895.91
2019-05-02T06:45:22.879Z,96886.60
2019-05-02T06:47:51.188Z,96889.80
2019-05-02T06:50:19.048Z,96890.05
2019-05-02T06:52:46.907Z,96891.94
2019-05-02T06:55:14.693Z,96890.25
2019-05-02T06:57:42.528Z,96887.55
2019-05-02T07:00:10.654Z,96882.34
2019-05-02T07:02:38.432Z,96883.44
2019-05-02T07:05:06.481Z,96883.04
2019-05-02T07:07:37.148Z,96881.59
2019-05-02T07:10:07.238Z,96884.13
2019-05-02T07:12:33.915Z,96878.48
2019-05-02T07:15:03.780Z,96886.44
2019-05-02T07:17:41.908Z,96882.08
2019-05-02T07:20:09.800Z,96883.73
2019-05-02T07:22:38.614Z,96884.18
2019-05-02T07:25:08.925Z,96876.58
2019-05-02T07:27:39.038Z,96882.13
2019-05-02T07:30:06.818Z,96881.27
2019-05-02T07:32:34.734Z,96874.70
2019-05-02T07:35:02.509Z,96878.22
2019-05-02T07:37:30.412Z,96875.87
2019-05-02T07:39:58.306Z,96873.52
2019-05-02T07:42:26.176Z,96869.41
2019-05-02T07:44:54.061Z,96871.17
2019-05-02T07:47:21.962Z,96862.45
2019-05-02T07:49:49.849Z,96860.04
2019-05-02T07:52:17.710Z,96860.97
2019-05-02T07:54:45.886Z,96859.73
2019-05-02T07:57:13.812Z,96861.33
2019-05-02T07:59:41.699Z,96860.27
2019-05-02T08:02:09.842Z,96855.21
2019-05-02T08:04:37.721Z,96857.20
2019-05-02T08:07:05.578Z,96858.41
2019-05-02T08:09:33.556Z,96859.20
2019-05-02T08:12:01.343Z,96856.34
2019-05-02T08:14:34.038Z,96856.20
2019-05-02T08:17:05.331Z,96858.98
2019-05-02T08:19:28.680Z,96858.12
2019-05-02T08:21:56.600Z,96858.47
2019-05-02T08:24:24.484Z,96854.56
2019-05-02T08:27:09.935Z,96851.87
2019-05-02T08:29:37.981Z,96857.03
2019-05-02T08:32:05.968Z,96854.22
2019-05-02T08:34:33.900Z,96842.12
2019-05-02T08:37:03.079Z,96841.12
2019-05-02T08:39:33.905Z,96843.82
2019-05-02T08:42:01.586Z,96838.41
2019-05-02T08:44:29.452Z,96835.16
2019-05-02T08:46:57.704Z,96835.92
2019-05-02T08:49:25.986Z,96840.17
2019-05-02T08:51:54.060Z,96833.06
2019-05-02T08:54:22.028Z,96842.05
2019-05-02T08:56:53.405Z,96842.76
2019-05-02T08:59:19.781Z,96839.11
2019-05-02T09:01:49.483Z,96838.76
2019-05-02T09:04:17.307Z,96834.94
2019-05-02T09:06:46.106Z,96827.03
2019-05-02T09:09:13.959Z,96830.53
2019-05-02T09:11:43.888Z,96704.81
2019-05-02T09:14:12.543Z,96827.12
2019-05-02T09:16:42.626Z,96825.05
2019-05-02T09:19:15.221Z,96818.50
2019-05-02T09:21:39.702Z,96820.77
2019-05-02T09:24:08.372Z,96813.45
2019-05-02T09:26:38.742Z,96810.39
2019-05-02T09:29:06.867Z,96805.06
2019-05-02T09:31:36.821Z,96797.16
2019-05-02T09:34:04.538Z,96806.63
2019-05-02T09:36:32.599Z,96798.71
2019-05-02T09:39:02.515Z,96795.25
2019-05-02T09:41:34.441Z,96792.95
2019-05-02T09:43:59.784Z,96794.77
2019-05-02T09:46:27.931Z,96790.00
2019-05-02T09:48:57.151Z,96785.30
2019-05-02T09:51:25.466Z,96777.40
2019-05-02T09:53:57.024Z,96776.13
2019-05-02T09:56:22.900Z,96769.16
2019-05-02T09:58:55.050Z,96767.30
2019-05-02T10:01:26.884Z,96759.74
2019-05-02T10:03:54.663Z,96762.52
2019-05-02T10:06:22.994Z,96757.83
2019-05-02T10:08:51.962Z,96751.70
2019-05-02T10:11:22.569Z,96748.77
2019-05-02T10:13:51.897Z,96750.36
2019-05-02T10:16:23.497Z,96744.23
2019-05-02T10:18:49.366Z,96746.94
2019-05-02T10:21:17.410Z,96739.38
2019-05-02T10:23:45.164Z,96736.95
2019-05-02T10:26:19.804Z,96736.23
2019-05-02T10:28:49.342Z,96733.69
2019-05-02T10:31:12.725Z,96721.92
2019-05-02T10:33:42.036Z,96725.42
2019-05-02T10:36:11.974Z,96721.99
2019-05-02T10:38:40.086Z,96719.82
2019-05-02T10:41:07.984Z,96720.38
2019-05-02T10:43:35.840Z,96718.81
2019-05-02T10:46:09.879Z,96714.59
2019-05-02T10:48:42.166Z,96717.73
2019-05-02T10:51:29.172Z,96713.88
2019-05-02T10:53:57.086Z,96703.33
2019-05-02T10:56:25.116Z,96702.05
2019-05-02T10:58:53.155Z,96696.84
2019-05-02T11:01:22.292Z,96692.62
2019-05-02T11:03:51.678Z,96684.61
2019-05-02T11:06:22.091Z,96695.30
2019-05-02T11:08:49.481Z,96682.33
2019-05-02T11:11:17.463Z,96679.56
2019-05-02T11:14:05.607Z,96675.14
2019-05-02T11:16:39.310Z,96679.83
2019-05-02T11:19:12.864Z,96668.80
2019-05-02T11:21:53.489Z,96656.89
2019-05-02T11:24:12.207Z,96657.42
2019-05-02T11:26:39.884Z,96654.28
2019-05-02T11:29:07.764Z,96647.23
2019-05-02T11:31:35.687Z,96645.08
2019-05-02T11:34:03.676Z,96646.80
2019-05-02T11:36:32.895Z,96651.67
2019-05-02T11:39:09.662Z,96649.49
2019-05-02T11:41:31.711Z,96654.47
2019-05-02T11:43:59.837Z,96647.28
2019-05-02T11:46:27.618Z,96654.20
2019-05-02T11:48:58.536Z,96654.36
2019-05-02T11:51:25.186Z,96651.66
2019-05-02T11:53:53.116Z,96665.73
2019-05-02T11:56:22.295Z,96662.47
2019-05-02T11:58:50.399Z,96664.19
2019-05-02T12:01:20.201Z,96663.03
2019-05-02T12:08:58.560Z,96658.55
2019-05-02T12:11:47.461Z,96645.82
2019-05-02T12:14:14.899Z,96647.37
2019-05-02T12:16:43.185Z,96640.61
2019-05-02T12:19:14.366Z,96638.27
2019-05-02T12:21:41.993Z,96640.61
2019-05-02T12:24:10.363Z,96641.41
2019-05-02T12:26:41.900Z,96639.13
2019-05-02T12:29:12.100Z,96634.08
2019-05-02T12:31:39.705Z,96631.38
2019-05-02T12:34:26.780Z,96630.56
2019-05-02T12:36:54.538Z,96623.70
2019-05-02T12:39:22.700Z,96614.07
2019-05-02T12:41:53.144Z,96610.44
2019-05-02T12:44:22.184Z,96608.92
2019-05-02T12:46:51.800Z,96606.95
2019-05-02T12:52:07.059Z,96594.87
2019-05-02T12:54:35.028Z,96589.30
2019-05-02T12:57:02.829Z,96585.41
2019-05-02T12:59:32.183Z,96577.91
2019-05-02T13:04:39.155Z,96570.87
2019-05-02T13:07:07.012Z,96571.94
2019-05-02T13:09:34.992Z,96580.00
2019-05-02T13:14:57.568Z,96574.58
2019-05-02T13:17:25.597Z,96576.27
2019-05-02T13:19:56.955Z,96562.11
2019-05-02T13:22:42.050Z,96559.41
2019-05-02T13:25:13.038Z,96560.59
2019-05-02T13:27:47.504Z,96559.25
2019-05-02T13:32:57.942Z,96548.37
2019-05-02T13:35:32.366Z,96549.69
2019-05-02T13:38:02.928Z,96553.32
2019-05-02T13:40:51.720Z,96548.70
2019-05-02T13:46:27.582Z,96547.28
2019-05-02T13:48:55.470Z,96547.72
2019-05-02T13:51:23.370Z,96544.64
2019-05-02T13:54:12.409Z,96541.58
2019-05-02T13:56:58.968Z,96536.98
2019-05-02T13:59:27.165Z,96531.78
2019-05-02T14:04:43.689Z,96523.02
2019-05-02T14:07:13.149Z,96518.40
2019-05-02T14:10:02.294Z,96519.64
2019-05-02T14:12:48.656Z,96512.51
2019-05-02T14:17:55.878Z,96505.49
2019-05-02T14:20:23.897Z,96503.66
2019-05-02T14:22:52.680Z,96503.41
2019-05-02T14:25:22.395Z,96504.76
2019-05-02T14:27:55.528Z,96499.55
2019-05-02T14:35:36.282Z,96494.55
2019-05-02T14:38:23.049Z,96491.66
2019-05-02T14:41:12.179Z,96484.72
2019-05-02T14:43:58.638Z,96481.11
2019-05-02T14:46:35.333Z,96485.88
2019-05-02T14:48:56.612Z,96476.60
2019-05-02T14:51:27.710Z,96471.56
2019-05-02T14:53:57.440Z,96473.11
2019-05-02T14:59:02.801Z,96468.19
2019-05-02T15:01:32.155Z,96475.19
2019-05-02T15:04:19.729Z,96468.93
2019-05-02T15:06:48.003Z,96468.91
2019-05-02T15:09:16.807Z,96466.77
2019-05-02T15:12:13.823Z,96466.34
2019-05-02T15:14:34.595Z,96461.36
2019-05-02T15:17:02.860Z,96463.64
2019-05-02T15:19:32.908Z,96464.85
2019-05-02T15:22:02.505Z,96457.24
2019-05-02T15:24:33.242Z,96461.89
2019-05-02T15:27:03.994Z,96453.55
2019-05-02T15:29:31.950Z,96460.54
2019-05-02T15:32:18.315Z,96454.70
2019-05-02T15:35:05.160Z,96458.23
2019-05-02T15:37:56.784Z,96447.83
2019-05-02T15:42:52.217Z,96451.88
2019-05-02T15:45:23.827Z,96445.30
2019-05-02T15:47:52.620Z,96445.54
2019-05-02T15:53:34.452Z,96443.89
2019-05-02T15:56:02.383Z,96445.80
2019-05-02T15:58:32.361Z,96437.49
2019-05-02T16:01:18.959Z,96442.34
2019-05-02T16:03:48.303Z,96446.03
2019-05-02T16:06:35.379Z,96438.28
2019-05-02T16:09:03.626Z,96433.36
2019-05-02T16:11:32.223Z,96433.91
2019-05-02T16:14:02.177Z,96430.53
2019-05-02T16:16:32.070Z,96435.58
2019-05-02T16:19:27.140Z,96428.33
2019-05-02T16:24:32.298Z,96430.09
2019-05-02T16:27:01.637Z,96427.05
2019-05-02T16:29:31.726Z,96424.83
2019-05-02T16:32:18.624Z,96421.68
2019-05-02T16:35:12.431Z,96422.19
2019-05-02T16:37:35.087Z,96416.95
2019-05-02T16:40:29.958Z,96415.41
2019-05-02T16:42:51.919Z,96411.42
2019-05-02T16:48:30.554Z,96409.65
2019-05-02T16:50:57.345Z,96420.10
2019-05-02T16:53:44.331Z,96418.75
2019-05-02T16:56:12.207Z,96413.83
2019-05-02T16:58:43.375Z,96410.63
2019-05-02T17:03:44.446Z,96404.86
2019-05-02T17:06:12.438Z,96409.03
2019-05-02T17:08:59.356Z,96407.29
2019-05-02T17:14:17.749Z,96411.13
2019-05-02T17:17:04.795Z,96410.54
2019-05-02T17:22:33.626Z,96414.34
2019-05-02T17:25:05.815Z,96421.87
2019-05-02T17:27:32.462Z,96422.83
2019-05-02T17:30:03.587Z,96420.27
2019-05-02T17:32:36.220Z,96430.33
2019-05-02T17:35:02.592Z,96428.19
2019-05-02T17:37:30.125Z,96430.27
2019-05-02T17:39:57.989Z,96438.94
2019-05-02T17:42:26.125Z,96429.28
2019-05-02T17:44:57.910Z,96434.69
2019-05-02T17:47:23.885Z,96431.56
2019-05-02T17:50:29.879Z,96437.77
2019-05-02T17:55:40.087Z,96437.56
2019-05-02T17:58:21.518Z,96439.28
2019-05-02T18:01:13.002Z,96447.95
2019-05-02T18:03:42.524Z,96448.52
2019-05-02T18:06:13.260Z,96452.58
2019-05-02T18:08:41.700Z,96469.53
2019-05-02T18:11:09.823Z,96497.16
2019-05-02T18:13:37.861Z,96503.14
2019-05-02T18:16:07.574Z,96520.41
2019-05-02T18:18:37.586Z,96537.45
2019-05-02T18:21:05.200Z,96555.86
2019-05-02T18:23:33.236Z,96551.56
2019-05-02T18:26:02.755Z,96554.30
2019-05-02T18:28:31.021Z,96556.64
2019-05-02T18:31:05.738Z,96555.11
2019-05-02T18:33:36.064Z,96580.36
2019-05-02T18:36:01.993Z,96538.48
2019-05-02T18:38:30.104Z,96450.41
2019-05-02T18:41:00.428Z,96527.89
2019-05-02T18:43:27.788Z,96531.26
2019-05-02T18:45:58.309Z,96542.24
2019-05-02T18:48:25.428Z,96524.23
2019-05-02T18:50:53.265Z,96534.95
2019-05-02T18:53:24.098Z,96537.23
2019-05-02T18:55:51.889Z,96569.48
2019-05-02T18:58:22.400Z,96546.86
2019-05-02T19:00:51.955Z,96543.17
2019-05-02T19:03:19.748Z,96548.02
2019-05-02T19:05:51.537Z,96539.84
2019-05-02T19:08:28.158Z,96544.33
2019-05-02T19:11:04.619Z,96554.97
2019-05-02T19:13:22.300Z,96557.52
2019-05-02T19:15:50.518Z,96563.87
2019-05-02T19:18:19.716Z,96569.02
2019-05-02T19:21:06.953Z,96579.57
2019-05-02T19:23:35.098Z,96575.41
2019-05-02T19:26:10.124Z,96577.45
2019-05-02T19:28:48.362Z,96589.86
2019-05-02T19:31:16.364Z,96590.98
2019-05-02T19:33:44.270Z,96593.25
2019-05-02T19:36:16.294Z,96597.67
2019-05-02T19:38:42.801Z,96597.83
2019-05-02T19:41:11.662Z,96595.75
2019-05-02T19:43:40.208Z,96599.18
2019-05-02T19:46:09.402Z,96594.04
2019-05-02T19:48:39.006Z,96596.48
2019-05-02T19:51:12.649Z,96593.77
2019-05-02T19:53:36.639Z,96584.11
2019-05-02T19:56:06.684Z,96577.91
2019-05-02T19:58:36.574Z,96576.00
2019-05-02T20:01:03.762Z,96565.19
2019-05-02T20:03:32.397Z,96564.56
2019-05-02T20:06:02.545Z,96567.03
2019-05-02T20:08:30.113Z,96568.39
2019-05-02T20:10:58.480Z,96562.22
2019-05-02T20:13:28.535Z,96562.84
2019-05-02T20:16:05.528Z,96559.65
2019-05-02T20:18:34.836Z,96560.60
2019-05-02T20:21:27.825Z,96560.96
2019-05-02T20:23:54.618Z,96559.38
2019-05-02T20:26:22.626Z,96557.73
2019-05-02T20:28:52.621Z,96555.03
2019-05-02T20:31:21.714Z,96563.21
2019-05-02T20:33:51.896Z,96569.97
2019-05-02T20:36:19.563Z,96575.94
2019-05-02T20:38:47.462Z,96578.28
2019-05-02T20:41:15.403Z,96580.78
2019-05-02T20:43:44.941Z,96580.19
2019-05-02T20:46:13.081Z,96589.65
2019-05-02T20:48:41.826Z,96571.72
2019-05-02T20:51:11.978Z,96571.87
2019-05-02T20:53:41.853Z,96571.98
2019-05-02T20:56:09.450Z,96565.75
2019-05-02T20:58:37.342Z,96568.02
2019-05-02T21:01:08.780Z,96562.62
2019-05-02T21:03:35.410Z,96567.03
2019-05-02T21:06:38.647Z,96573.80
2019-05-02T21:09:27.592Z,96575.77
2019-05-02T21:12:02.052Z,96583.61
2019-05-02T21:14:30.086Z,96597.72
2019-05-02T21:16:58.019Z,96605.59
2019-05-02T21:19:26.180Z,96605.23
2019-05-02T21:21:54.092Z,96609.16
2019-05-02T21:24:22.562Z,96615.33
2019-05-02T21:26:52.491Z,96614.97
2019-05-02T21:29:22.770Z,96616.68
2019-05-02T21:31:52.005Z,96612.86
2019-05-02T21:34:22.249Z,96622.09
2019-05-02T21:36:51.739Z,96620.25
2019-05-02T21:39:19.314Z,96621.33
2019-05-02T21:41:47.234Z,96628.48
2019-05-02T21:44:15.241Z,96629.34
2019-05-02T21:46:43.168Z,96624.66
2019-05-02T21:49:12.080Z,96627.30
2019-05-02T21:51:46.027Z,96626.57
2019-05-02T21:54:48.336Z,96633.11
2019-05-02T21:57:18.118Z,96628.62
2019-05-02T21:59:46.108Z,96632.66
2019-05-02T22:02:14.315Z,96631.51
2019-05-02T22:04:42.398Z,96633.45
2019-05-02T22:07:12.156Z,96632.82
2019-05-02T22:09:41.677Z,96637.08
2019-05-02T22:12:11.818Z,96638.23
2019-05-02T22:14:39.567Z,96639.58
2019-05-02T22:17:07.592Z,96638.23
2019-05-02T22:19:35.614Z,96636.72
2019-05-02T22:22:07.087Z,96636.45
2019-05-02T22:24:35.411Z,96641.85
2019-05-02T22:27:03.420Z,96639.98
2019-05-02T22:29:32.398Z,96627.22
2019-05-02T22:32:03.018Z,96634.33
2019-05-02T22:34:32.671Z,96640.92
2019-05-02T22:37:01.926Z,96636.61
2019-05-02T22:39:44.630Z,96632.39
2019-05-02T22:42:12.982Z,96633.55
2019-05-02T22:44:41.733Z,96638.29
2019-05-02T22:47:11.767Z,96634.88
2019-05-02T22:49:42.285Z,96637.30
2019-05-02T22:52:12.189Z,96638.94
2019-05-02T22:54:41.661Z,96633.41
2019-05-02T22:57:11.590Z,96636.30
2019-05-02T22:59:39.614Z,96636.10
2019-05-02T23:02:07.563Z,96635.60
2019-05-02T23:04:35.582Z,96638.90
2019-05-02T23:07:03.603Z,96635.20
2019-05-02T23:09:31.741Z,96632.70
2019-05-02T23:11:59.815Z,96631.87
2019-05-02T23:14:27.845Z,96627.45
2019-05-02T23:16:55.902Z,96634.56
2019-05-02T23:19:24.227Z,96629.80
2019-05-02T23:21:52.804Z,96630.00
2019-05-02T23:24:38.972Z,96621.73
2019-05-02T23:27:17.687Z,96624.75
2019-05-02T23:29:45.875Z,96631.63
2019-05-02T23:32:13.766Z,96628.53
2019-05-02T23:34:42.082Z,96627.38
2019-05-02T23:37:11.832Z,96624.20
2019-05-02T23:39:41.699Z,96626.39
2019-05-02T23:42:09.560Z,96479.23
2019-05-02T23:44:37.496Z,96619.91
2019-05-02T23:47:05.488Z,96626.81
2019-05-02T23:49:33.343Z,96625.39
2019-05-02T23:52:02.296Z,96631.16
2019-05-02T23:54:32.318Z,96635.41
2019-05-02T23:57:00.099Z,96638.64
2019-05-02T23:59:28.159Z,96631.67
